Time;durP1;ratioP1;P1;durP2;ratioP2;P2;SDS_P1;SDS_P2;PMS_P1;PMS_P2;Temp;Humidity;BMP_temperature;BMP_pressure;BME280_temperature;BME280_humidity;BME280_pressure;Samples;Min_cycle;Max_cycle;Signal;HPM_P1;HPM_P2
2021/11/14 00:01:01;;;;;;;27.82;19.37;;;;;;;2.42;70.38;101698.28;1680275;85;21435;-68
2021/11/14 00:03:29;;;;;;;25.08;18.60;;;;;;;2.42;70.39;101700.92;1680140;84;21066;-68
2021/11/14 00:05:55;;;;;;;27.10;18.32;;;;;;;2.41;70.33;101699.80;1680249;84;21038;-68
2021/11/14 00:08:22;;;;;;;26.20;18.10;;;;;;;2.37;70.35;101698.00;1680158;85;21040;-68
2021/11/14 00:10:54;;;;;;;29.70;18.95;;;;;;;2.37;70.34;101698.47;1699815;81;21101;-68
2021/11/14 00:13:21;;;;;;;19.50;14.07;;;;;;;2.35;70.37;101697.34;1713657;82;21007;-68
2021/11/14 00:15:47;;;;;;;24.77;17.65;;;;;;;2.37;70.38;101706.38;1713290;83;21504;-68
2021/11/14 00:18:14;;;;;;;28.87;18.42;;;;;;;2.33;70.35;101700.14;1712755;83;20963;-68
2021/11/14 00:20:40;;;;;;;26.97;19.00;;;;;;;2.30;70.39;101693.08;1702667;82;21117;-68
2021/11/14 00:23:07;;;;;;;25.52;18.05;;;;;;;2.25;70.51;101698.88;1682478;85;21542;-68
2021/11/14 00:25:35;;;;;;;26.25;18.60;;;;;;;2.25;70.60;101691.48;1708413;84;21115;-68
2021/11/14 00:28:02;;;;;;;27.05;19.00;;;;;;;2.25;70.67;101703.34;1708345;84;21068;-68
2021/11/14 00:30:30;;;;;;;28.38;19.42;;;;;;;2.24;70.72;101697.75;1707710;84;21543;-68
2021/11/14 00:32:57;;;;;;;28.17;19.48;;;;;;;2.24;70.74;101696.44;1736662;81;21513;-68
2021/11/14 00:35:24;;;;;;;30.10;19.95;;;;;;;2.20;70.78;101692.48;1726843;83;21506;-68
2021/11/14 00:37:51;;;;;;;32.17;21.40;;;;;;;2.19;70.87;101697.44;1713301;83;21004;-68
2021/11/14 00:40:26;;;;;;;31.48;20.88;;;;;;;2.18;70.98;101697.13;1712936;82;21026;-68
2021/11/14 00:42:55;;;;;;;33.30;22.15;;;;;;;2.16;71.08;101697.28;1713548;83;21047;-66
2021/11/14 00:45:23;;;;;;;31.05;20.65;;;;;;;2.17;71.24;101694.15;1713379;82;21124;-67
2021/11/14 00:47:52;;;;;;;34.98;20.75;;;;;;;2.21;71.37;101696.28;1713442;83;20987;-67
2021/11/14 00:50:18;;;;;;;32.23;21.68;;;;;;;2.24;71.55;101695.12;1712439;82;21035;-68
2021/11/14 00:52:46;;;;;;;31.10;20.77;;;;;;;2.34;71.49;101687.30;1726866;83;21020;-67
2021/11/14 00:55:16;;;;;;;31.25;21.55;;;;;;;2.41;71.46;101686.11;1714394;83;21122;-67
2021/11/14 00:57:43;;;;;;;34.58;22.82;;;;;;;2.49;71.44;101688.67;1713415;82;21546;-67
2021/11/14 01:00:15;;;;;;;33.63;23.02;;;;;;;2.57;71.35;101690.45;1713567;83;21059;-67
2021/11/14 01:02:42;;;;;;;35.52;23.47;;;;;;;2.61;71.26;101686.95;1713554;82;21020;-67
2021/11/14 01:05:11;;;;;;;33.50;23.35;;;;;;;2.64;71.14;101681.33;1684483;83;21000;-67
2021/11/14 01:07:38;;;;;;;34.08;22.25;;;;;;;2.67;71.08;101682.30;1680017;85;21113;-67
2021/11/14 01:10:07;;;;;;;33.00;22.17;;;;;;;2.68;70.97;101684.75;1680357;84;21296;-67
2021/11/14 01:12:34;;;;;;;32.95;21.52;;;;;;;2.69;70.90;101677.14;1697721;84;21592;-68
2021/11/14 01:15:03;;;;;;;34.25;21.25;;;;;;;2.71;70.86;101683.58;1710195;84;21055;-68
2021/11/14 01:17:31;;;;;;;36.05;21.55;;;;;;;2.72;70.81;101672.02;1688191;84;20983;-67
2021/11/14 01:19:59;;;;;;;30.95;22.05;;;;;;;2.73;70.74;101676.29;1710333;84;21126;-68
2021/11/14 01:22:26;;;;;;;31.82;20.52;;;;;;;2.74;70.72;101679.27;1680066;85;21135;-68
2021/11/14 01:24:53;;;;;;;31.73;21.15;;;;;;;2.76;70.75;101677.25;1680020;84;20964;-67
2021/11/14 01:27:21;;;;;;;29.60;20.45;;;;;;;2.79;70.74;101682.17;1680155;85;21078;-67
2021/11/14 01:29:48;;;;;;;33.40;20.55;;;;;;;2.81;70.73;101678.88;1680176;85;20983;-67
2021/11/14 01:32:14;;;;;;;32.15;20.77;;;;;;;2.85;70.73;101680.15;1680292;85;21451;-67
2021/11/14 01:34:41;;;;;;;33.23;20.97;;;;;;;2.87;70.79;101682.13;1679914;84;21161;-68
2021/11/14 01:37:08;;;;;;;31.57;21.17;;;;;;;2.92;70.81;101684.22;1680308;85;21098;-68
2021/11/14 01:39:35;;;;;;;34.88;21.97;;;;;;;2.94;70.84;101683.05;1703239;82;20968;-68
2021/11/14 01:42:02;;;;;;;35.00;21.40;;;;;;;2.97;70.88;101682.69;1709208;81;20967;-68
2021/11/14 01:44:29;;;;;;;32.93;21.27;;;;;;;3.01;70.92;101685.79;1684634;83;21063;-68
2021/11/14 01:46:55;;;;;;;35.70;21.68;;;;;;;3.03;70.94;101681.98;1683285;85;21119;-68
2021/11/14 01:49:22;;;;;;;32.93;21.73;;;;;;;3.06;70.98;101683.45;1696040;84;21022;-68
2021/11/14 01:51:49;;;;;;;34.10;21.77;;;;;;;3.11;71.05;101689.50;1684795;85;21019;-68
2021/11/14 01:54:19;;;;;;;36.35;22.27;;;;;;;3.16;71.12;101690.60;1683102;83;21028;-68
2021/11/14 01:56:46;;;;;;;35.65;23.20;;;;;;;3.20;71.22;101691.06;1684674;85;21056;-68
2021/11/14 01:59:13;;;;;;;35.70;23.95;;;;;;;3.24;71.29;101691.83;1683343;85;21845;-68
2021/11/14 02:01:40;;;;;;;37.20;23.32;;;;;;;3.31;71.37;101692.43;1696292;84;21526;-68
2021/11/14 02:04:08;;;;;;;34.63;23.27;;;;;;;3.36;71.38;101691.41;1713645;83;21091;-68
2021/11/14 02:06:36;;;;;;;36.00;22.73;;;;;;;3.40;71.37;101689.52;1713332;83;21511;-68
2021/11/14 02:09:04;;;;;;;35.85;23.83;;;;;;;3.42;71.34;101684.89;1708686;84;21633;-68
2021/11/14 02:11:33;;;;;;;33.10;22.20;;;;;;;3.43;71.32;101685.20;1739474;81;21439;-68
2021/11/14 02:14:00;;;;;;;35.35;22.13;;;;;;;3.46;71.23;101681.38;1726789;81;21050;-68
2021/11/14 02:16:28;;;;;;;33.05;21.97;;;;;;;3.46;71.12;101683.52;1708573;84;21020;-68
2021/11/14 02:18:55;;;;;;;31.25;21.02;;;;;;;3.46;70.98;101683.52;1726808;81;21085;-68
2021/11/14 02:21:23;;;;;;;33.75;22.30;;;;;;;3.46;70.87;101683.52;1708671;84;21531;-68
2021/11/14 02:23:50;;;;;;;33.58;21.82;;;;;;;3.43;70.75;101685.71;1726827;82;21143;-68
2021/11/14 02:26:17;;;;;;;31.93;21.17;;;;;;;3.42;70.73;101690.17;1708513;84;21087;-68
2021/11/14 02:28:44;;;;;;;30.70;21.05;;;;;;;3.41;70.70;101688.52;1726727;83;20979;-68
2021/11/14 02:31:11;;;;;;;31.07;20.88;;;;;;;3.40;70.70;101683.42;1708516;84;21004;-68
2021/11/14 02:33:39;;;;;;;33.63;21.87;;;;;;;3.36;70.64;101684.80;1739584;81;20965;-68
2021/11/14 02:36:08;;;;;;;31.23;21.15;;;;;;;3.33;70.62;101685.98;1726731;83;21175;-68
2021/11/14 02:38:37;;;;;;;31.65;20.70;;;;;;;3.31;70.65;101687.97;1699824;84;21583;-68
2021/11/14 02:41:05;;;;;;;33.42;21.65;;;;;;;3.29;70.62;101700.05;1716566;83;20940;-68
2021/11/14 02:43:33;;;;;;;31.65;20.88;;;;;;;3.26;70.61;101689.84;1714380;82;21161;-68
2021/11/14 02:46:00;;;;;;;34.78;22.80;;;;;;;3.25;70.58;101699.25;1716458;83;20988;-68
2021/11/14 02:48:27;;;;;;;33.20;21.25;;;;;;;3.24;70.57;101698.94;1716557;82;21124;-68
2021/11/14 02:50:56;;;;;;;30.45;21.42;;;;;;;3.21;70.52;101694.02;1670836;85;21008;-68
2021/11/14 02:53:23;;;;;;;30.25;19.80;;;;;;;3.20;70.50;101696.34;1680188;85;20990;-68
2021/11/14 02:55:51;;;;;;;34.30;21.25;;;;;;;3.19;70.48;101696.00;1695338;84;21530;-68
2021/11/14 02:58:18;;;;;;;33.20;20.77;;;;;;;3.15;70.47;101693.41;1704166;83;20968;-68
2021/11/14 03:00:57;;;;;;;30.40;19.87;;;;;;;3.14;70.45;101693.09;1709906;83;21797;-68
2021/11/14 03:03:25;;;;;;;34.33;21.35;;;;;;;3.13;70.51;101691.47;1709450;84;21166;-67
2021/11/14 03:05:52;;;;;;;34.27;21.70;;;;;;;3.12;70.55;101693.77;1710297;83;21114;-67
2021/11/14 03:08:19;;;;;;;31.73;21.20;;;;;;;3.08;70.55;101691.17;1680174;85;21053;-67
2021/11/14 03:10:48;;;;;;;32.28;21.77;;;;;;;2.99;70.62;101695.69;1679957;84;21051;-67
2021/11/14 03:13:17;;;;;;;28.87;19.23;;;;;;;2.95;70.78;101693.91;1696821;83;22179;-67
2021/11/14 03:15:47;;;;;;;35.35;21.97;;;;;;;2.95;70.85;101686.50;1726834;81;21021;-67
2021/11/14 03:18:15;;;;;;;33.20;20.35;;;;;;;2.89;71.01;101686.70;1713695;83;21066;-67
2021/11/14 03:20:46;;;;;;;35.70;22.45;;;;;;;2.91;71.04;101692.64;1713067;82;21093;-67
2021/11/14 03:23:13;;;;;;;37.42;23.27;;;;;;;2.86;71.14;101687.06;1713482;83;20988;-67
2021/11/14 03:25:41;;;;;;;34.23;20.82;;;;;;;2.81;71.32;101686.79;1713419;82;21982;-67
2021/11/14 03:28:08;;;;;;;38.10;23.18;;;;;;;2.80;71.40;101683.34;1713143;83;21026;-67
2021/11/14 03:30:35;;;;;;;34.55;21.12;;;;;;;2.77;71.47;101683.69;1713515;82;21550;-67
2021/11/14 03:33:05;;;;;;;35.80;22.60;;;;;;;2.77;71.53;101675.78;1713412;83;20965;-68
2021/11/14 03:35:44;;;;;;;38.42;24.18;;;;;;;2.76;71.60;101676.78;1713509;82;21550;-67
2021/11/14 03:38:12;;;;;;;37.20;22.42;;;;;;;2.77;71.68;101678.41;1712265;83;21180;-68
2021/11/14 03:40:40;;;;;;;33.90;22.58;;;;;;;2.78;71.74;101674.77;1713276;82;21016;-68
2021/11/14 03:43:08;;;;;;;32.90;21.25;;;;;;;2.81;71.71;101672.28;1713362;83;21523;-68
2021/11/14 03:45:37;;;;;;;33.80;22.15;;;;;;;2.85;71.66;101672.23;1713177;82;21093;-69
2021/11/14 03:48:04;;;;;;;37.15;21.82;;;;;;;2.85;71.61;101667.46;1713749;83;21467;-68
2021/11/14 03:50:32;;;;;;;31.30;20.25;;;;;;;2.84;71.54;101666.65;1713557;82;21180;-68
2021/11/14 03:52:58;;;;;;;34.13;21.35;;;;;;;2.82;71.54;101674.72;1713320;83;21038;-68
2021/11/14 03:55:25;;;;;;;31.23;19.73;;;;;;;2.81;71.49;101673.09;1713439;82;20992;-68
2021/11/14 03:57:53;;;;;;;30.12;20.72;;;;;;;2.81;71.46;101665.68;1712520;83;20996;-67
2021/11/14 04:00:25;;;;;;;32.40;21.95;;;;;;;2.79;71.45;101670.30;1698995;83;21564;-68
2021/11/14 04:02:53;;;;;;;33.58;21.37;;;;;;;2.75;71.45;101672.98;1707139;83;21083;-67
2021/11/14 04:05:20;;;;;;;37.88;21.17;;;;;;;2.71;71.48;101676.48;1661986;85;21024;-67
2021/11/14 04:07:48;;;;;;;32.45;20.57;;;;;;;2.69;71.55;101681.61;1690011;83;21549;-67
2021/11/14 04:10:15;;;;;;;38.38;23.62;;;;;;;2.65;71.57;101677.69;1715724;81;20968;-67
2021/11/14 04:12:42;;;;;;;39.50;22.60;;;;;;;2.63;71.60;101680.98;1695241;84;21137;-67
2021/11/14 04:15:12;;;;;;;39.75;23.00;;;;;;;2.59;71.67;101684.48;1684529;85;21150;-67
2021/11/14 04:17:40;;;;;;;41.37;25.25;;;;;;;2.58;71.77;101687.63;1683069;85;21048;-67
2021/11/14 04:20:09;;;;;;;36.73;22.48;;;;;;;2.58;71.86;101689.44;1696461;84;21518;-67
2021/11/14 04:22:39;;;;;;;40.65;23.02;;;;;;;2.59;71.99;101691.89;1704336;82;21039;-67
2021/11/14 04:25:07;;;;;;;37.42;21.55;;;;;;;2.61;72.03;101694.37;1716722;82;20955;-67
2021/11/14 04:27:35;;;;;;;38.50;22.87;;;;;;;2.59;72.11;101685.30;1715737;82;21169;-67
2021/11/14 04:30:02;;;;;;;39.73;22.87;;;;;;;2.58;72.18;101692.08;1716581;83;20988;-67
2021/11/14 04:32:29;;;;;;;34.58;22.27;;;;;;;2.59;72.29;101691.08;1716454;83;21038;-68
2021/11/14 04:34:56;;;;;;;36.77;22.87;;;;;;;2.61;72.31;101697.51;1716646;82;21087;-68
2021/11/14 04:37:23;;;;;;;33.67;20.62;;;;;;;2.62;72.33;101693.86;1716289;83;21035;-68
2021/11/14 04:39:51;;;;;;;34.20;20.25;;;;;;;2.62;72.39;101692.05;1716643;83;21111;-68
2021/11/14 04:42:18;;;;;;;35.17;21.33;;;;;;;2.65;72.42;101693.02;1716902;83;21047;-68
2021/11/14 04:44:45;;;;;;;32.23;20.90;;;;;;;2.68;72.39;101694.48;1716523;83;20960;-68
2021/11/14 04:47:12;;;;;;;31.15;19.90;;;;;;;2.67;72.40;101693.67;1716850;83;21047;-67
2021/11/14 04:49:41;;;;;;;33.13;21.25;;;;;;;2.71;72.44;101696.27;1716474;82;20980;-68
2021/11/14 04:52:09;;;;;;;32.38;19.95;;;;;;;2.73;72.45;101693.44;1716542;83;21132;-68
2021/11/14 04:54:36;;;;;;;32.48;20.12;;;;;;;2.76;72.42;101696.57;1716167;82;21018;-68
2021/11/14 04:57:05;;;;;;;30.55;19.87;;;;;;;2.79;72.41;101694.05;1716804;83;20932;-67
2021/11/14 04:59:32;;;;;;;34.30;21.20;;;;;;;2.82;72.38;101691.06;1695986;83;21481;-68
2021/11/14 05:02:00;;;;;;;34.00;21.27;;;;;;;2.86;72.40;101696.80;1687985;85;21572;-67
2021/11/14 05:04:27;;;;;;;34.23;22.02;;;;;;;2.88;72.33;101695.63;1687747;83;21169;-67
2021/11/14 05:06:54;;;;;;;33.42;21.60;;;;;;;2.91;72.33;101697.09;1687710;85;21544;-67
2021/11/14 05:09:21;;;;;;;30.82;20.37;;;;;;;2.94;72.33;101697.56;1687940;85;21161;-67
2021/11/14 05:11:49;;;;;;;29.82;20.35;;;;;;;2.99;72.26;101699.14;1687920;85;20982;-66
2021/11/14 05:14:16;;;;;;;30.10;20.27;;;;;;;3.03;72.17;101703.59;1687681;83;21015;-67
2021/11/14 05:16:44;;;;;;;32.65;20.45;;;;;;;3.01;72.06;101699.80;1687855;85;21123;-67
2021/11/14 05:19:11;;;;;;;33.15;21.87;;;;;;;2.99;72.04;101704.42;1687700;83;20983;-68
2021/11/14 05:21:39;;;;;;;32.45;22.13;;;;;;;2.93;72.00;101706.48;1687883;85;21580;-68
2021/11/14 05:24:07;;;;;;;34.30;21.97;;;;;;;2.91;72.10;101708.47;1697942;82;21031;-68
2021/11/14 05:26:35;;;;;;;32.80;21.30;;;;;;;2.96;72.18;101700.85;1715698;82;20965;-68
2021/11/14 05:29:02;;;;;;;37.15;23.67;;;;;;;3.03;72.16;101703.59;1713842;83;21148;-67
2021/11/14 05:31:31;;;;;;;37.78;23.52;;;;;;;3.07;72.20;101700.91;1716505;82;20999;-69
2021/11/14 05:33:58;;;;;;;35.48;23.00;;;;;;;3.17;72.14;101709.90;1715925;82;21038;-68
2021/11/14 05:36:25;;;;;;;34.03;21.30;;;;;;;3.23;72.13;101713.15;1716610;82;20988;-67
2021/11/14 05:38:52;;;;;;;32.08;21.50;;;;;;;3.25;72.06;101709.30;1716165;82;21099;-68
2021/11/14 05:41:19;;;;;;;37.35;22.87;;;;;;;3.25;72.05;101717.22;1716460;82;21110;-68
2021/11/14 05:43:46;;;;;;;31.82;20.62;;;;;;;3.26;72.05;101727.31;1715784;82;20944;-68
2021/11/14 05:46:13;;;;;;;33.48;21.77;;;;;;;3.27;72.10;101723.66;1716525;82;20960;-68
2021/11/14 05:48:40;;;;;;;30.65;21.20;;;;;;;3.28;72.17;101729.25;1716966;83;21554;-68
2021/11/14 05:51:07;;;;;;;34.35;21.33;;;;;;;3.31;72.15;101729.40;1716430;82;21007;-68
2021/11/14 05:53:35;;;;;;;33.65;21.40;;;;;;;3.32;72.20;101733.67;1716324;83;21559;-68
2021/11/14 05:56:02;;;;;;;31.97;21.52;;;;;;;3.33;72.23;101727.41;1715843;82;21490;-68
2021/11/14 06:01:24;;;;;;;37.88;22.27;;;;;;;3.38;72.33;101739.05;1716597;82;21047;-69
2021/11/14 06:06:25;;;;;;;35.13;22.30;;;;;;;3.45;72.39;101734.69;1716313;82;21376;-67
2021/11/14 06:08:52;;;;;;;33.40;22.82;;;;;;;3.47;72.40;101729.23;1716325;83;21007;-67
2021/11/14 06:11:24;;;;;;;34.20;23.40;;;;;;;3.46;72.41;101733.70;1716075;83;21023;-67
2021/11/14 06:13:53;;;;;;;33.90;22.62;;;;;;;3.46;72.41;101736.34;1694804;83;21027;-67
2021/11/14 06:16:21;;;;;;;38.53;24.18;;;;;;;3.46;72.44;101742.95;1716440;83;20995;-67
2021/11/14 06:18:49;;;;;;;37.83;25.48;;;;;;;3.48;72.47;101742.75;1716423;83;21486;-67
2021/11/14 06:21:17;;;;;;;38.50;23.57;;;;;;;3.48;72.49;101736.97;1716242;82;21590;-69
2021/11/14 06:23:44;;;;;;;37.90;24.67;;;;;;;3.49;72.49;101740.45;1716880;83;21547;-67
2021/11/14 06:26:11;;;;;;;38.17;22.45;;;;;;;3.53;72.54;101734.62;1715796;82;21003;-67
2021/11/14 06:28:38;;;;;;;34.10;21.12;;;;;;;3.63;72.64;101738.81;1712370;82;22347;-68
2021/11/14 06:31:05;;;;;;;34.38;21.77;;;;;;;3.69;72.57;101744.20;1686112;83;21916;-67
2021/11/14 06:33:34;;;;;;;39.27;24.05;;;;;;;3.77;72.56;101747.23;1686243;85;20961;-68
2021/11/14 06:36:03;;;;;;;30.48;20.00;;;;;;;3.84;72.55;101746.82;1697852;82;20987;-68
2021/11/14 06:38:30;;;;;;;32.53;20.32;;;;;;;3.94;72.52;101743.89;1716331;83;21064;-68
2021/11/14 06:40:57;;;;;;;36.68;23.70;;;;;;;4.02;72.53;101749.61;1715686;82;21661;-67
2021/11/14 06:43:25;;;;;;;33.13;20.60;;;;;;;4.09;72.50;101751.83;1715928;82;21147;-67
2021/11/14 06:45:52;;;;;;;35.33;21.23;;;;;;;4.19;72.48;101758.97;1716651;82;21153;-68
2021/11/14 06:48:19;;;;;;;41.25;23.92;;;;;;;4.24;72.46;101755.25;1716394;83;21014;-68
2021/11/14 06:50:47;;;;;;;35.83;21.70;;;;;;;4.32;72.48;101751.19;1716238;83;21043;-68
2021/11/14 06:53:14;;;;;;;37.73;22.48;;;;;;;4.40;72.45;101752.38;1716356;83;20999;-68
2021/11/14 06:55:41;;;;;;;36.85;22.82;;;;;;;4.46;72.42;101750.83;1716346;82;21086;-69
2021/11/14 06:58:08;;;;;;;34.88;22.82;;;;;;;4.51;72.37;101757.71;1716313;82;21039;-69
2021/11/14 07:00:36;;;;;;;36.88;25.00;;;;;;;4.53;72.30;101753.54;1716734;83;21144;-68
2021/11/14 07:03:04;;;;;;;47.50;25.37;;;;;;;4.54;72.29;101759.14;1716605;83;21515;-68
2021/11/14 07:05:31;;;;;;;42.08;26.12;;;;;;;4.55;72.24;101762.13;1715805;82;21569;-69
2021/11/14 07:07:58;;;;;;;33.08;22.27;;;;;;;4.56;72.24;101757.14;1716381;82;21188;-68
2021/11/14 07:10:25;;;;;;;42.95;26.10;;;;;;;4.58;72.29;101757.78;1716482;82;20976;-70
2021/11/14 07:12:53;;;;;;;28.12;20.50;;;;;;;4.61;72.35;101753.44;1716452;82;21049;-69
2021/11/14 07:15:20;;;;;;;32.78;22.93;;;;;;;4.72;72.47;101755.58;1715236;82;21122;-69
2021/11/14 07:17:48;;;;;;;45.28;25.43;;;;;;;4.74;72.30;101760.66;1687648;85;21208;-68
2021/11/14 07:20:16;;;;;;;33.90;22.80;;;;;;;4.75;72.33;101759.17;1699036;83;21142;-68
2021/11/14 07:22:44;;;;;;;34.13;21.90;;;;;;;4.77;72.33;101755.00;1716625;83;21554;-68
2021/11/14 07:25:19;;;;;;;34.63;23.42;;;;;;;4.83;72.34;101756.38;1716553;83;21035;-68
2021/11/14 07:27:51;;;;;;;33.65;23.05;;;;;;;4.84;72.39;101762.02;1716489;83;21174;-67
2021/11/14 07:30:19;;;;;;;35.33;22.35;;;;;;;4.90;72.36;101757.29;1716818;82;21634;-67
2021/11/14 07:32:46;;;;;;;33.65;23.55;;;;;;;4.92;72.33;101753.93;1739755;82;21104;-67
2021/11/14 07:35:15;;;;;;;35.25;22.67;;;;;;;4.96;72.33;101759.66;1739450;82;21048;-68
2021/11/14 07:37:42;;;;;;;35.75;23.77;;;;;;;5.03;72.38;101761.05;1738879;81;21095;-67
2021/11/14 07:40:12;;;;;;;30.90;21.93;;;;;;;5.10;72.44;101763.23;1727005;83;21077;-68
2021/11/14 07:42:43;;;;;;;30.70;22.60;;;;;;;5.18;72.44;101749.88;1713744;83;21411;-68
2021/11/14 07:45:09;;;;;;;36.50;24.50;;;;;;;5.24;72.48;101749.11;1712563;82;21184;-67
2021/11/14 07:47:37;;;;;;;36.75;24.70;;;;;;;5.27;72.37;101751.38;1713408;83;20976;-68
2021/11/14 07:50:08;;;;;;;34.75;24.45;;;;;;;5.28;72.30;101748.22;1713686;83;20976;-68
2021/11/14 07:52:35;;;;;;;37.50;23.92;;;;;;;5.24;72.22;101755.73;1713334;83;21086;-70
2021/11/14 07:55:03;;;;;;;35.55;24.75;;;;;;;5.23;72.28;101747.97;1699335;83;21046;-69
2021/11/14 07:57:29;;;;;;;32.05;23.45;;;;;;;5.21;72.22;101748.17;1710066;83;21142;-67
2021/11/14 07:59:57;;;;;;;29.02;20.45;;;;;;;5.22;72.30;101745.83;1710160;84;20972;-67
2021/11/14 08:02:24;;;;;;;36.08;25.27;;;;;;;5.29;72.41;101742.72;1710050;84;20999;-67
2021/11/14 08:04:52;;;;;;;36.05;23.95;;;;;;;5.31;72.34;101743.35;1680207;85;21586;-67
2021/11/14 08:07:19;;;;;;;31.15;22.75;;;;;;;5.34;72.40;101746.13;1680222;85;21608;-67
2021/11/14 08:09:46;;;;;;;36.63;24.87;;;;;;;5.45;72.51;101746.91;1680553;85;21129;-68
2021/11/14 08:12:16;;;;;;;39.42;26.07;;;;;;;5.53;72.46;101749.94;1709800;84;20980;-68
2021/11/14 08:14:43;;;;;;;34.58;24.70;;;;;;;5.59;72.52;101750.45;1680478;85;21135;-69
2021/11/14 08:17:11;;;;;;;33.05;23.87;;;;;;;5.62;72.53;101743.45;1680140;84;21011;-69
2021/11/14 08:19:38;;;;;;;34.23;24.07;;;;;;;5.70;72.53;101743.81;1680510;85;21580;-69
2021/11/14 08:22:06;;;;;;;37.10;25.60;;;;;;;5.76;72.54;101732.41;1680005;84;21026;-68
2021/11/14 08:24:34;;;;;;;36.38;26.07;;;;;;;5.84;72.46;101731.75;1710174;84;20968;-68
2021/11/14 08:27:01;;;;;;;34.25;25.00;;;;;;;5.91;72.47;101729.64;1697805;84;21026;-68
2021/11/14 08:29:28;;;;;;;39.40;28.27;;;;;;;6.02;72.54;101732.59;1710084;84;21020;-69
2021/11/14 08:31:55;;;;;;;41.53;29.07;;;;;;;6.14;72.61;101727.52;1710193;83;21047;-69
2021/11/14 08:34:22;;;;;;;41.77;29.42;;;;;;;6.31;72.63;101726.13;1680313;85;21142;-69
2021/11/14 08:36:49;;;;;;;41.48;29.92;;;;;;;6.48;72.64;101721.78;1702750;82;21040;-69
2021/11/14 08:39:16;;;;;;;34.05;24.47;;;;;;;6.65;72.60;101720.92;1662138;86;21452;-69
2021/11/14 08:41:44;;;;;;;34.20;24.80;;;;;;;6.80;72.40;101715.71;1661915;86;20965;-69
2021/11/14 08:44:11;;;;;;;40.55;28.80;;;;;;;6.85;72.12;101713.80;1661987;85;21588;-68
2021/11/14 08:46:38;;;;;;;37.67;26.97;;;;;;;6.86;71.94;101713.28;1678962;83;21127;-68
2021/11/14 08:49:05;;;;;;;31.65;23.18;;;;;;;6.94;72.01;101711.25;1727064;83;21051;-68
2021/11/14 08:51:32;;;;;;;35.08;24.92;;;;;;;7.04;71.83;101707.66;1712714;83;21577;-68
2021/11/14 08:53:59;;;;;;;32.88;25.32;;;;;;;7.02;71.49;101705.72;1701377;82;21100;-68
2021/11/14 08:56:28;;;;;;;37.88;27.82;;;;;;;7.00;71.31;101706.42;1700185;83;21461;-68
2021/11/14 08:58:55;;;;;;;33.25;24.27;;;;;;;7.07;71.40;101706.93;1684803;85;21098;-68
2021/11/14 09:01:22;;;;;;;39.95;28.95;;;;;;;7.17;71.29;101705.52;1713073;83;21011;-67
2021/11/14 09:03:49;;;;;;;37.60;27.13;;;;;;;7.28;71.29;101699.56;1714904;83;21078;-67
2021/11/14 09:06:16;;;;;;;43.60;31.40;;;;;;;7.42;71.28;101699.54;1713338;82;20956;-68
2021/11/14 09:08:44;;;;;;;38.38;28.17;;;;;;;7.55;71.17;101694.70;1713125;83;20999;-69
2021/11/14 09:11:11;;;;;;;40.92;29.12;;;;;;;7.67;70.99;101692.52;1713657;82;21818;-69
2021/11/14 09:13:39;;;;;;;43.95;30.95;;;;;;;7.77;70.75;101694.73;1712864;83;21051;-69
2021/11/14 09:16:06;;;;;;;34.53;26.17;;;;;;;7.85;70.50;101697.16;1713463;82;20992;-67
2021/11/14 09:18:34;;;;;;;38.02;27.15;;;;;;;7.91;70.30;101696.31;1713536;82;21537;-69
2021/11/14 09:21:01;;;;;;;41.92;31.10;;;;;;;7.86;69.83;101696.11;1713140;82;21003;-69
2021/11/14 09:23:28;;;;;;;41.28;29.95;;;;;;;7.79;69.62;101689.20;1725890;81;21138;-67
2021/11/14 09:25:55;;;;;;;42.13;30.65;;;;;;;7.79;69.68;101690.02;1713582;83;20932;-67
2021/11/14 09:28:23;;;;;;;39.85;28.27;;;;;;;7.80;69.47;101686.34;1713077;82;20984;-68
2021/11/14 09:30:50;;;;;;;41.40;30.20;;;;;;;7.78;69.31;101687.58;1712271;82;21019;-68
2021/11/14 09:33:25;;;;;;;38.60;27.25;;;;;;;7.78;69.23;101683.59;1739252;82;21019;-68
2021/11/14 09:35:54;;;;;;;39.92;29.45;;;;;;;7.80;69.13;101682.36;1739675;82;21106;-68
2021/11/14 09:38:21;;;;;;;42.25;31.00;;;;;;;7.80;68.95;101682.84;1739035;82;21095;-68
2021/11/14 09:40:48;;;;;;;41.05;30.08;;;;;;;7.77;68.84;101680.11;1739773;81;21111;-67
2021/11/14 09:43:18;;;;;;;42.53;30.10;;;;;;;7.77;68.76;101680.11;1738375;81;20996;-68
2021/11/14 09:45:44;;;;;;;41.05;29.70;;;;;;;7.79;68.81;101681.22;1739785;82;21138;-67
2021/11/14 09:48:11;;;;;;;40.45;28.15;;;;;;;7.81;68.82;101677.33;1739335;81;21107;-67
2021/11/14 09:50:38;;;;;;;44.85;31.77;;;;;;;7.89;68.96;101677.08;1738749;81;21079;-68
2021/11/14 09:53:08;;;;;;;43.80;30.85;;;;;;;7.97;68.99;101668.05;1714413;82;21083;-68
2021/11/14 09:55:36;;;;;;;43.42;29.95;;;;;;;8.01;68.93;101654.63;1708613;83;38885;-69
2021/11/14 09:58:07;;;;;;;43.90;30.97;;;;;;;8.05;68.87;101659.81;1738469;81;21071;-68
2021/11/14 10:00:38;;;;;;;43.95;30.95;;;;;;;8.10;68.83;101657.34;1689559;84;21096;-68
2021/11/14 10:03:05;;;;;;;41.65;30.52;;;;;;;8.11;68.78;101657.63;1689614;83;20972;-68
2021/11/14 10:05:34;;;;;;;48.90;33.18;;;;;;;8.12;68.88;101656.59;1684879;83;21039;-67
2021/11/14 10:08:05;;;;;;;48.33;33.15;;;;;;;8.19;68.88;101656.07;1726321;81;21063;-67
2021/11/14 10:10:36;;;;;;;43.28;31.10;;;;;;;8.26;68.73;101656.52;1727011;83;21055;-68
2021/11/14 10:13:16;;;;;;;46.68;34.78;;;;;;;8.31;68.56;101652.19;1709417;83;23069;-68
2021/11/14 10:15:47;;;;;;;45.58;31.95;;;;;;;8.32;68.34;101654.33;1738814;81;21012;-68
2021/11/14 10:18:14;;;;;;;48.95;34.58;;;;;;;8.35;68.31;101656.56;1726817;83;21208;-68
2021/11/14 10:20:41;;;;;;;46.08;31.85;;;;;;;8.35;68.25;101644.59;1710666;83;21039;-68
2021/11/14 10:23:12;;;;;;;44.95;32.33;;;;;;;8.37;68.25;101648.67;1739267;81;20920;-68
2021/11/14 10:25:44;;;;;;;42.75;30.27;;;;;;;8.41;68.24;101649.90;1726363;81;21169;-67
2021/11/14 10:28:10;;;;;;;50.15;34.90;;;;;;;8.43;68.27;101653.69;1710866;81;20993;-68
2021/11/14 10:30:42;;;;;;;49.25;34.10;;;;;;;8.44;68.22;101652.12;1713373;83;21538;-68
2021/11/14 10:33:12;;;;;;;43.97;32.43;;;;;;;8.43;68.08;101659.02;1713463;83;21087;-69
2021/11/14 10:35:40;;;;;;;52.38;36.48;;;;;;;8.43;67.96;101655.02;1712202;83;20987;-69
2021/11/14 10:38:15;;;;;;;50.08;34.88;;;;;;;8.41;67.94;101654.41;1713323;83;21439;-69
2021/11/14 10:40:48;;;;;;;48.75;34.92;;;;;;;8.43;68.01;101651.84;1711654;83;21047;-68
2021/11/14 10:43:17;;;;;;;50.23;34.58;;;;;;;8.46;67.98;101651.94;1713410;82;21622;-68
2021/11/14 10:46:06;;;;;;;50.83;35.88;;;;;;;8.50;67.92;101646.47;1711443;83;21071;-68
2021/11/14 10:48:33;;;;;;;51.25;36.40;;;;;;;8.49;67.82;101648.00;1720072;83;21014;-67
2021/11/14 10:51:02;;;;;;;47.88;33.88;;;;;;;8.51;67.82;101646.76;1689602;83;21238;-67
2021/11/14 10:53:32;;;;;;;48.38;34.20;;;;;;;8.53;67.83;101641.23;1703693;84;21072;-69
2021/11/14 10:56:02;;;;;;;51.13;36.45;;;;;;;8.51;67.92;101644.09;1702152;83;21091;-69
2021/11/14 10:58:30;;;;;;;47.58;34.08;;;;;;;8.52;68.03;101639.06;1649402;87;21593;-67
2021/11/14 11:01:01;;;;;;;43.68;31.73;;;;;;;8.54;68.17;101637.01;1668915;86;21015;-69
2021/11/14 11:03:41;;;;;;;47.40;32.93;;;;;;;8.55;68.26;101630.64;1668873;85;21121;-67
2021/11/14 11:06:11;;;;;;;46.37;32.88;;;;;;;8.59;68.33;101627.05;1668689;86;21081;-69
2021/11/14 11:08:38;;;;;;;52.17;36.30;;;;;;;8.57;68.37;101625.92;1668902;85;21003;-67
2021/11/14 11:11:07;;;;;;;49.18;35.45;;;;;;;8.58;68.48;101627.55;1668902;86;21026;-69
2021/11/14 11:13:45;;;;;;;53.10;37.90;;;;;;;8.59;68.52;101632.38;1668774;86;21612;-69
2021/11/14 11:16:21;;;;;;;50.58;35.63;;;;;;;8.59;68.57;101619.06;1668803;86;21809;-69
2021/11/14 11:19:04;;;;;;;53.17;38.17;;;;;;;8.60;68.66;101620.16;1716959;83;21058;-68
2021/11/14 11:21:37;;;;;;;45.05;31.30;;;;;;;8.63;68.73;101618.40;1699205;84;21509;-68
2021/11/14 11:24:19;;;;;;;52.17;34.88;;;;;;;8.68;68.78;101611.89;1693634;84;21093;-69
2021/11/14 11:27:08;;;;;;;51.68;37.83;;;;;;;8.71;68.74;101622.63;1689902;85;21465;-69